sensor_id;sensor_type;location;lat;lon;timestamp;temperature;humidity
4390;DHT22;2209;48.982;8.406;2023-04-03T00:01:03;9.10;99.50
4390;DHT22;2209;48.982;8.406;2023-04-03T00:03:25;9.00;99.60
4390;DHT22;2209;48.982;8.406;2023-04-03T00:05:49;9.00;99.60
4390;DHT22;2209;48.982;8.406;2023-04-03T00:08:11;9.00;99.60
4390;DHT22;2209;48.982;8.406;2023-04-03T00:10:33;9.00;99.60
4390;DHT22;2209;48.982;8.406;2023-04-03T00:12:56;9.00;99.60
4390;DHT22;2209;48.982;8.406;2023-04-03T00:15:18;9.00;99.70
4390;DHT22;2209;48.982;8.406;2023-04-03T00:17:40;9.00;99.60
4390;DHT22;2209;48.982;8.406;2023-04-03T00:20:02;9.00;99.50
4390;DHT22;2209;48.982;8.406;2023-04-03T00:22:26;9.00;99.50
4390;DHT22;2209;48.982;8.406;2023-04-03T00:24:49;9.00;99.50
4390;DHT22;2209;48.982;8.406;2023-04-03T00:27:11;8.90;99.50
4390;DHT22;2209;48.982;8.406;2023-04-03T00:29:33;8.90;99.40
4390;DHT22;2209;48.982;8.406;2023-04-03T00:31:55;8.90;99.40
4390;DHT22;2209;48.982;8.406;2023-04-03T00:34:17;8.90;99.50
4390;DHT22;2209;48.982;8.406;2023-04-03T00:36:40;8.90;99.50
4390;DHT22;2209;48.982;8.406;2023-04-03T00:39:03;8.90;99.50
4390;DHT22;2209;48.982;8.406;2023-04-03T00:41:26;8.90;99.50
4390;DHT22;2209;48.982;8.406;2023-04-03T00:43:48;8.90;99.40
4390;DHT22;2209;48.982;8.406;2023-04-03T00:46:11;8.90;99.40
4390;DHT22;2209;48.982;8.406;2023-04-03T00:48:36;8.90;99.40
4390;DHT22;2209;48.982;8.406;2023-04-03T00:50:59;8.90;99.30
4390;DHT22;2209;48.982;8.406;2023-04-03T00:53:23;8.90;99.30
4390;DHT22;2209;48.982;8.406;2023-04-03T00:55:49;8.80;99.30
4390;DHT22;2209;48.982;8.406;2023-04-03T00:58:13;8.90;99.70
4390;DHT22;2209;48.982;8.406;2023-04-03T01:00:38;8.90;99.50
4390;DHT22;2209;48.982;8.406;2023-04-03T01:03:02;8.90;99.50
4390;DHT22;2209;48.982;8.406;2023-04-03T01:05:24;8.90;99.40
4390;DHT22;2209;48.982;8.406;2023-04-03T01:07:46;8.80;99.40
4390;DHT22;2209;48.982;8.406;2023-04-03T01:10:11;8.80;99.40
4390;DHT22;2209;48.982;8.406;2023-04-03T01:12:38;8.80;99.40
4390;DHT22;2209;48.982;8.406;2023-04-03T01:15:02;8.80;99.40
4390;DHT22;2209;48.982;8.406;2023-04-03T01:17:28;8.80;99.40
4390;DHT22;2209;48.982;8.406;2023-04-03T01:20:02;8.80;99.40
4390;DHT22;2209;48.982;8.406;2023-04-03T01:22:35;8.80;99.50
4390;DHT22;2209;48.982;8.406;2023-04-03T01:25:01;8.80;99.50
4390;DHT22;2209;48.982;8.406;2023-04-03T01:27:23;8.80;99.60
4390;DHT22;2209;48.982;8.406;2023-04-03T01:29:47;8.80;99.60
4390;DHT22;2209;48.982;8.406;2023-04-03T01:32:11;8.70;99.40
4390;DHT22;2209;48.982;8.406;2023-04-03T01:34:33;8.70;99.40
4390;DHT22;2209;48.982;8.406;2023-04-03T01:36:55;8.70;99.40
4390;DHT22;2209;48.982;8.406;2023-04-03T01:39:17;8.70;99.30
4390;DHT22;2209;48.982;8.406;2023-04-03T01:41:39;8.60;99.20
4390;DHT22;2209;48.982;8.406;2023-04-03T01:44:01;8.70;99.20
4390;DHT22;2209;48.982;8.406;2023-04-03T01:46:24;8.60;99.10
4390;DHT22;2209;48.982;8.406;2023-04-03T01:48:48;8.60;99.10
4390;DHT22;2209;48.982;8.406;2023-04-03T01:51:10;8.60;99.10
4390;DHT22;2209;48.982;8.406;2023-04-03T01:53:32;8.60;99.10
4390;DHT22;2209;48.982;8.406;2023-04-03T01:55:54;8.50;99.10
4390;DHT22;2209;48.982;8.406;2023-04-03T01:58:16;8.60;99.20
4390;DHT22;2209;48.982;8.406;2023-04-03T02:00:38;8.60;99.30
4390;DHT22;2209;48.982;8.406;2023-04-03T02:03:00;8.50;99.20
4390;DHT22;2209;48.982;8.406;2023-04-03T02:05:24;8.50;99.20
4390;DHT22;2209;48.982;8.406;2023-04-03T02:07:46;8.50;99.30
4390;DHT22;2209;48.982;8.406;2023-04-03T02:10:09;8.50;99.40
4390;DHT22;2209;48.982;8.406;2023-04-03T02:12:31;8.40;99.20
4390;DHT22;2209;48.982;8.406;2023-04-03T02:14:53;8.40;99.40
4390;DHT22;2209;48.982;8.406;2023-04-03T02:17:15;8.40;99.60
4390;DHT22;2209;48.982;8.406;2023-04-03T02:19:38;8.40;99.80
4390;DHT22;2209;48.982;8.406;2023-04-03T02:22:01;8.40;99.90
4390;DHT22;2209;48.982;8.406;2023-04-03T02:24:23;8.40;99.90
4390;DHT22;2209;48.982;8.406;2023-04-03T02:26:45;8.40;99.90
4390;DHT22;2209;48.982;8.406;2023-04-03T02:29:07;8.40;99.90
4390;DHT22;2209;48.982;8.406;2023-04-03T02:31:29;8.40;99.90
4390;DHT22;2209;48.982;8.406;2023-04-03T02:33:51;8.30;99.90
4390;DHT22;2209;48.982;8.406;2023-04-03T02:36:13;8.30;99.90
4390;DHT22;2209;48.982;8.406;2023-04-03T02:38:37;8.30;99.90
4390;DHT22;2209;48.982;8.406;2023-04-03T02:41:00;8.30;99.90
4390;DHT22;2209;48.982;8.406;2023-04-03T02:43:22;8.30;99.90
4390;DHT22;2209;48.982;8.406;2023-04-03T02:45:44;8.30;99.90
4390;DHT22;2209;48.982;8.406;2023-04-03T02:48:06;8.20;99.90
4390;DHT22;2209;48.982;8.406;2023-04-03T02:50:28;8.20;99.90
4390;DHT22;2209;48.982;8.406;2023-04-03T02:52:50;8.20;99.90
4390;DHT22;2209;48.982;8.406;2023-04-03T02:55:15;8.20;99.90
4390;DHT22;2209;48.982;8.406;2023-04-03T02:57:37;8.10;99.90
4390;DHT22;2209;48.982;8.406;2023-04-03T02:59:59;8.10;99.90
4390;DHT22;2209;48.982;8.406;2023-04-03T03:02:21;8.10;99.90
4390;DHT22;2209;48.982;8.406;2023-04-03T03:04:43;8.10;99.90
4390;DHT22;2209;48.982;8.406;2023-04-03T03:07:05;8.10;99.90
4390;DHT22;2209;48.982;8.406;2023-04-03T03:09:27;8.10;99.90
4390;DHT22;2209;48.982;8.406;2023-04-03T03:11:51;8.00;99.90
4390;DHT22;2209;48.982;8.406;2023-04-03T03:14:13;8.00;99.90
4390;DHT22;2209;48.982;8.406;2023-04-03T03:16:35;8.00;99.90
4390;DHT22;2209;48.982;8.406;2023-04-03T03:18:57;8.00;99.90
4390;DHT22;2209;48.982;8.406;2023-04-03T03:21:19;8.00;99.90
4390;DHT22;2209;48.982;8.406;2023-04-03T03:23:41;8.00;99.90
4390;DHT22;2209;48.982;8.406;2023-04-03T03:26:05;7.90;99.90
4390;DHT22;2209;48.982;8.406;2023-04-03T03:28:29;7.90;99.90
4390;DHT22;2209;48.982;8.406;2023-04-03T03:30:52;7.90;99.90
4390;DHT22;2209;48.982;8.406;2023-04-03T03:33:14;7.90;99.90
4390;DHT22;2209;48.982;8.406;2023-04-03T03:35:36;7.80;99.90
4390;DHT22;2209;48.982;8.406;2023-04-03T03:37:58;7.80;99.90
4390;DHT22;2209;48.982;8.406;2023-04-03T03:40:20;7.80;99.90
4390;DHT22;2209;48.982;8.406;2023-04-03T03:42:42;7.80;99.90
4390;DHT22;2209;48.982;8.406;2023-04-03T03:45:08;7.80;99.90
4390;DHT22;2209;48.982;8.406;2023-04-03T03:47:30;7.80;99.90
4390;DHT22;2209;48.982;8.406;2023-04-03T03:49:52;7.70;99.90
4390;DHT22;2209;48.982;8.406;2023-04-03T03:52:14;7.70;99.90
4390;DHT22;2209;48.982;8.406;2023-04-03T03:54:36;7.70;99.90
4390;DHT22;2209;48.982;8.406;2023-04-03T03:56:58;7.70;99.90
4390;DHT22;2209;48.982;8.406;2023-04-03T03:59:20;7.70;99.90
4390;DHT22;2209;48.982;8.406;2023-04-03T04:01:43;7.70;99.90
4390;DHT22;2209;48.982;8.406;2023-04-03T04:04:05;7.70;99.90
4390;DHT22;2209;48.982;8.406;2023-04-03T04:06:27;7.60;99.90
4390;DHT22;2209;48.982;8.406;2023-04-03T04:08:49;7.60;99.90
4390;DHT22;2209;48.982;8.406;2023-04-03T04:11:11;7.60;99.90
4390;DHT22;2209;48.982;8.406;2023-04-03T04:13:33;7.60;99.90
4390;DHT22;2209;48.982;8.406;2023-04-03T04:15:56;7.60;99.90
4390;DHT22;2209;48.982;8.406;2023-04-03T04:18:19;7.60;99.90
4390;DHT22;2209;48.982;8.406;2023-04-03T04:20:44;7.60;99.90
4390;DHT22;2209;48.982;8.406;2023-04-03T04:23:06;7.60;99.90
4390;DHT22;2209;48.982;8.406;2023-04-03T04:25:28;7.60;99.90
4390;DHT22;2209;48.982;8.406;2023-04-03T04:27:50;7.60;99.90
4390;DHT22;2209;48.982;8.406;2023-04-03T04:30:13;7.60;99.90
4390;DHT22;2209;48.982;8.406;2023-04-03T04:32:35;7.60;99.90
4390;DHT22;2209;48.982;8.406;2023-04-03T04:34:59;7.60;99.90
4390;DHT22;2209;48.982;8.406;2023-04-03T04:37:21;7.60;99.90
4390;DHT22;2209;48.982;8.406;2023-04-03T04:39:43;7.60;99.90
4390;DHT22;2209;48.982;8.406;2023-04-03T04:42:05;7.60;99.90
4390;DHT22;2209;48.982;8.406;2023-04-03T04:44:29;7.50;99.90
4390;DHT22;2209;48.982;8.406;2023-04-03T04:46:51;7.50;99.90
4390;DHT22;2209;48.982;8.406;2023-04-03T04:49:13;7.50;99.90
4390;DHT22;2209;48.982;8.406;2023-04-03T04:51:36;7.50;99.90
4390;DHT22;2209;48.982;8.406;2023-04-03T04:53:58;7.50;99.90
4390;DHT22;2209;48.982;8.406;2023-04-03T04:56:20;7.50;99.90
4390;DHT22;2209;48.982;8.406;2023-04-03T04:58:42;7.50;99.90
4390;DHT22;2209;48.982;8.406;2023-04-03T05:01:07;7.50;99.90
4390;DHT22;2209;48.982;8.406;2023-04-03T05:03:29;7.50;99.90
4390;DHT22;2209;48.982;8.406;2023-04-03T05:05:52;7.50;99.90
4390;DHT22;2209;48.982;8.406;2023-04-03T05:08:15;7.40;99.90
4390;DHT22;2209;48.982;8.406;2023-04-03T05:10:37;7.40;99.90
4390;DHT22;2209;48.982;8.406;2023-04-03T05:13:01;7.40;99.90
4390;DHT22;2209;48.982;8.406;2023-04-03T05:15:23;7.40;99.90
4390;DHT22;2209;48.982;8.406;2023-04-03T05:17:46;7.40;99.90
4390;DHT22;2209;48.982;8.406;2023-04-03T05:20:08;7.40;99.90
4390;DHT22;2209;48.982;8.406;2023-04-03T05:22:31;7.40;99.90
4390;DHT22;2209;48.982;8.406;2023-04-03T05:24:54;7.40;99.90
4390;DHT22;2209;48.982;8.406;2023-04-03T05:27:16;7.30;99.90
4390;DHT22;2209;48.982;8.406;2023-04-03T05:29:45;7.30;99.90
4390;DHT22;2209;48.982;8.406;2023-04-03T05:32:09;7.30;99.90
4390;DHT22;2209;48.982;8.406;2023-04-03T05:34:31;7.30;99.90
4390;DHT22;2209;48.982;8.406;2023-04-03T05:36:53;7.30;99.90
4390;DHT22;2209;48.982;8.406;2023-04-03T05:39:15;7.20;99.90
4390;DHT22;2209;48.982;8.406;2023-04-03T05:41:39;7.20;99.90
4390;DHT22;2209;48.982;8.406;2023-04-03T05:44:01;7.20;99.90
4390;DHT22;2209;48.982;8.406;2023-04-03T05:46:23;7.20;99.90
4390;DHT22;2209;48.982;8.406;2023-04-03T05:48:45;7.20;99.90
4390;DHT22;2209;48.982;8.406;2023-04-03T05:51:13;7.10;99.90
4390;DHT22;2209;48.982;8.406;2023-04-03T05:53:36;7.10;99.90
4390;DHT22;2209;48.982;8.406;2023-04-03T05:55:58;7.10;99.90
4390;DHT22;2209;48.982;8.406;2023-04-03T05:58:22;7.10;99.90
4390;DHT22;2209;48.982;8.406;2023-04-03T06:00:44;7.10;99.90
4390;DHT22;2209;48.982;8.406;2023-04-03T06:03:06;7.10;99.90
4390;DHT22;2209;48.982;8.406;2023-04-03T06:05:28;7.20;99.90
4390;DHT22;2209;48.982;8.406;2023-04-03T06:07:50;7.20;99.90
4390;DHT22;2209;48.982;8.406;2023-04-03T06:10:12;7.20;99.90
4390;DHT22;2209;48.982;8.406;2023-04-03T06:12:35;7.20;99.90
4390;DHT22;2209;48.982;8.406;2023-04-03T06:14:58;7.10;99.90
4390;DHT22;2209;48.982;8.406;2023-04-03T06:17:20;7.10;99.90
4390;DHT22;2209;48.982;8.406;2023-04-03T06:19:43;7.10;99.90
4390;DHT22;2209;48.982;8.406;2023-04-03T06:22:05;7.10;99.90
4390;DHT22;2209;48.982;8.406;2023-04-03T06:24:27;7.10;99.90
4390;DHT22;2209;48.982;8.406;2023-04-03T06:26:50;7.10;99.90
4390;DHT22;2209;48.982;8.406;2023-04-03T06:29:13;7.10;99.90
4390;DHT22;2209;48.982;8.406;2023-04-03T06:31:36;7.10;99.90
4390;DHT22;2209;48.982;8.406;2023-04-03T06:33:58;7.10;99.90
4390;DHT22;2209;48.982;8.406;2023-04-03T06:36:21;7.10;99.90
4390;DHT22;2209;48.982;8.406;2023-04-03T06:38:43;7.10;99.90
4390;DHT22;2209;48.982;8.406;2023-04-03T06:41:05;7.10;99.90
4390;DHT22;2209;48.982;8.406;2023-04-03T06:43:27;7.10;99.90
4390;DHT22;2209;48.982;8.406;2023-04-03T06:45:52;7.10;99.90
4390;DHT22;2209;48.982;8.406;2023-04-03T06:48:15;7.10;99.90
4390;DHT22;2209;48.982;8.406;2023-04-03T06:50:37;7.10;99.90
4390;DHT22;2209;48.982;8.406;2023-04-03T06:52:59;7.10;99.90
4390;DHT22;2209;48.982;8.406;2023-04-03T06:55:21;7.10;99.90
4390;DHT22;2209;48.982;8.406;2023-04-03T06:57:43;7.10;99.90
4390;DHT22;2209;48.982;8.406;2023-04-03T07:00:07;7.10;99.90
4390;DHT22;2209;48.982;8.406;2023-04-03T07:02:30;7.10;99.90
4390;DHT22;2209;48.982;8.406;2023-04-03T07:04:53;7.10;99.90
4390;DHT22;2209;48.982;8.406;2023-04-03T07:07:15;7.10;99.90
4390;DHT22;2209;48.982;8.406;2023-04-03T07:09:38;7.10;99.90
4390;DHT22;2209;48.982;8.406;2023-04-03T07:12:00;7.10;99.90
4390;DHT22;2209;48.982;8.406;2023-04-03T07:14:22;7.10;99.90
4390;DHT22;2209;48.982;8.406;2023-04-03T07:16:44;7.10;99.90
4390;DHT22;2209;48.982;8.406;2023-04-03T07:19:06;7.10;99.90
4390;DHT22;2209;48.982;8.406;2023-04-03T07:21:30;7.10;99.90
4390;DHT22;2209;48.982;8.406;2023-04-03T07:23:52;7.10;99.90
4390;DHT22;2209;48.982;8.406;2023-04-03T07:26:14;7.10;99.90
4390;DHT22;2209;48.982;8.406;2023-04-03T07:28:36;7.10;99.90
4390;DHT22;2209;48.982;8.406;2023-04-03T07:31:03;7.10;99.90
4390;DHT22;2209;48.982;8.406;2023-04-03T07:33:25;7.10;99.90
4390;DHT22;2209;48.982;8.406;2023-04-03T07:35:48;7.10;99.90
4390;DHT22;2209;48.982;8.406;2023-04-03T07:38:12;7.10;99.90
4390;DHT22;2209;48.982;8.406;2023-04-03T07:40:34;7.10;99.90
4390;DHT22;2209;48.982;8.406;2023-04-03T07:42:56;7.10;99.90
4390;DHT22;2209;48.982;8.406;2023-04-03T07:45:19;7.10;99.90
4390;DHT22;2209;48.982;8.406;2023-04-03T07:47:41;7.10;99.90
4390;DHT22;2209;48.982;8.406;2023-04-03T07:50:03;7.10;99.90
4390;DHT22;2209;48.982;8.406;2023-04-03T07:52:25;7.10;99.90
4390;DHT22;2209;48.982;8.406;2023-04-03T07:54:49;7.10;99.90
4390;DHT22;2209;48.982;8.406;2023-04-03T07:57:11;7.10;99.90
4390;DHT22;2209;48.982;8.406;2023-04-03T07:59:33;7.10;99.90
4390;DHT22;2209;48.982;8.406;2023-04-03T08:01:55;7.10;99.90
4390;DHT22;2209;48.982;8.406;2023-04-03T08:04:17;7.10;99.90
4390;DHT22;2209;48.982;8.406;2023-04-03T08:06:39;7.10;99.90
4390;DHT22;2209;48.982;8.406;2023-04-03T08:09:02;7.20;99.90
4390;DHT22;2209;48.982;8.406;2023-04-03T08:11:26;7.20;99.90
4390;DHT22;2209;48.982;8.406;2023-04-03T08:13:48;7.20;99.90
4390;DHT22;2209;48.982;8.406;2023-04-03T08:16:12;7.20;99.90
4390;DHT22;2209;48.982;8.406;2023-04-03T08:18:34;7.20;99.90
4390;DHT22;2209;48.982;8.406;2023-04-03T08:20:56;7.20;99.90
4390;DHT22;2209;48.982;8.406;2023-04-03T08:23:18;7.20;99.90
4390;DHT22;2209;48.982;8.406;2023-04-03T08:25:41;7.20;99.90
4390;DHT22;2209;48.982;8.406;2023-04-03T08:28:05;7.30;99.90
4390;DHT22;2209;48.982;8.406;2023-04-03T08:30:27;7.30;99.90
4390;DHT22;2209;48.982;8.406;2023-04-03T08:32:49;7.30;99.90
4390;DHT22;2209;48.982;8.406;2023-04-03T08:35:11;7.30;99.90
4390;DHT22;2209;48.982;8.406;2023-04-03T08:37:35;7.30;99.90
4390;DHT22;2209;48.982;8.406;2023-04-03T08:39:57;7.30;99.90
4390;DHT22;2209;48.982;8.406;2023-04-03T08:42:33;7.30;99.90
4390;DHT22;2209;48.982;8.406;2023-04-03T08:45:02;7.30;99.90
4390;DHT22;2209;48.982;8.406;2023-04-03T08:47:30;7.30;99.90
4390;DHT22;2209;48.982;8.406;2023-04-03T08:49:57;7.30;99.90
4390;DHT22;2209;48.982;8.406;2023-04-03T08:52:25;7.40;99.90
4390;DHT22;2209;48.982;8.406;2023-04-03T08:54:54;7.40;99.90
4390;DHT22;2209;48.982;8.406;2023-04-03T08:57:20;7.40;99.90
4390;DHT22;2209;48.982;8.406;2023-04-03T08:59:45;7.40;99.90
4390;DHT22;2209;48.982;8.406;2023-04-03T09:02:22;7.30;99.90
4390;DHT22;2209;48.982;8.406;2023-04-03T09:04:45;7.40;99.90
4390;DHT22;2209;48.982;8.406;2023-04-03T09:07:13;7.40;99.90
4390;DHT22;2209;48.982;8.406;2023-04-03T09:09:40;7.40;99.90
4390;DHT22;2209;48.982;8.406;2023-04-03T09:12:11;7.40;99.90
4390;DHT22;2209;48.982;8.406;2023-04-03T09:14:38;7.40;99.90
4390;DHT22;2209;48.982;8.406;2023-04-03T09:17:04;7.50;99.90
4390;DHT22;2209;48.982;8.406;2023-04-03T09:19:38;7.50;99.90
4390;DHT22;2209;48.982;8.406;2023-04-03T09:22:13;7.50;99.90
4390;DHT22;2209;48.982;8.406;2023-04-03T09:24:37;7.50;99.90
4390;DHT22;2209;48.982;8.406;2023-04-03T09:27:03;7.60;99.90
4390;DHT22;2209;48.982;8.406;2023-04-03T09:29:26;7.60;99.90
4390;DHT22;2209;48.982;8.406;2023-04-03T09:31:50;7.60;99.90
4390;DHT22;2209;48.982;8.406;2023-04-03T09:34:20;7.60;99.90
4390;DHT22;2209;48.982;8.406;2023-04-03T09:36:46;7.60;99.90
4390;DHT22;2209;48.982;8.406;2023-04-03T09:39:12;7.60;99.90
4390;DHT22;2209;48.982;8.406;2023-04-03T09:41:35;7.70;99.90
4390;DHT22;2209;48.982;8.406;2023-04-03T09:43:57;7.70;99.90
4390;DHT22;2209;48.982;8.406;2023-04-03T09:46:29;7.70;99.90
4390;DHT22;2209;48.982;8.406;2023-04-03T09:48:52;7.70;99.90
4390;DHT22;2209;48.982;8.406;2023-04-03T09:51:17;7.70;99.90
4390;DHT22;2209;48.982;8.406;2023-04-03T09:53:41;7.60;99.90
4390;DHT22;2209;48.982;8.406;2023-04-03T09:56:18;7.60;99.80
4390;DHT22;2209;48.982;8.406;2023-04-03T09:58:44;7.70;99.70
4390;DHT22;2209;48.982;8.406;2023-04-03T10:01:09;7.70;99.70
4390;DHT22;2209;48.982;8.406;2023-04-03T10:03:42;7.70;99.70
4390;DHT22;2209;48.982;8.406;2023-04-03T10:06:22;7.80;99.70
4390;DHT22;2209;48.982;8.406;2023-04-03T10:08:58;7.80;99.50
4390;DHT22;2209;48.982;8.406;2023-04-03T10:11:21;7.90;99.10
4390;DHT22;2209;48.982;8.406;2023-04-03T10:13:52;7.90;98.80
4390;DHT22;2209;48.982;8.406;2023-04-03T10:16:18;7.90;98.80
4390;DHT22;2209;48.982;8.406;2023-04-03T10:18:44;8.00;98.50
4390;DHT22;2209;48.982;8.406;2023-04-03T10:21:13;8.00;98.20
4390;DHT22;2209;48.982;8.406;2023-04-03T10:23:41;8.00;98.00
4390;DHT22;2209;48.982;8.406;2023-04-03T10:26:11;8.00;97.70
4390;DHT22;2209;48.982;8.406;2023-04-03T10:28:44;8.10;97.70
4390;DHT22;2209;48.982;8.406;2023-04-03T10:31:13;8.10;97.60
4390;DHT22;2209;48.982;8.406;2023-04-03T10:33:46;8.20;97.60
4390;DHT22;2209;48.982;8.406;2023-04-03T10:36:16;8.20;97.50
4390;DHT22;2209;48.982;8.406;2023-04-03T10:38:46;8.30;97.50
4390;DHT22;2209;48.982;8.406;2023-04-03T10:41:16;8.30;97.00
4390;DHT22;2209;48.982;8.406;2023-04-03T10:43:43;8.30;96.70
4390;DHT22;2209;48.982;8.406;2023-04-03T10:46:09;8.30;96.40
4390;DHT22;2209;48.982;8.406;2023-04-03T10:48:46;8.30;96.10
4390;DHT22;2209;48.982;8.406;2023-04-03T10:51:19;8.30;96.00
4390;DHT22;2209;48.982;8.406;2023-04-03T10:53:51;8.30;95.80
4390;DHT22;2209;48.982;8.406;2023-04-03T10:56:19;8.30;95.40
4390;DHT22;2209;48.982;8.406;2023-04-03T10:58:45;8.40;95.20
4390;DHT22;2209;48.982;8.406;2023-04-03T11:01:11;8.40;94.90
4390;DHT22;2209;48.982;8.406;2023-04-03T11:03:38;8.40;94.90
4390;DHT22;2209;48.982;8.406;2023-04-03T11:06:05;8.50;94.80
4390;DHT22;2209;48.982;8.406;2023-04-03T11:08:34;8.50;94.40
4390;DHT22;2209;48.982;8.406;2023-04-03T11:11:00;8.50;94.70
4390;DHT22;2209;48.982;8.406;2023-04-03T11:13:30;8.60;94.40
4390;DHT22;2209;48.982;8.406;2023-04-03T11:15:54;8.60;94.30
4390;DHT22;2209;48.982;8.406;2023-04-03T11:18:21;8.60;94.40
4390;DHT22;2209;48.982;8.406;2023-04-03T11:20:50;8.60;94.40
4390;DHT22;2209;48.982;8.406;2023-04-03T11:23:18;8.70;94.20
4390;DHT22;2209;48.982;8.406;2023-04-03T11:25:42;8.70;94.20
4390;DHT22;2209;48.982;8.406;2023-04-03T11:28:09;8.70;93.80
4390;DHT22;2209;48.982;8.406;2023-04-03T11:30:46;8.70;93.80
4390;DHT22;2209;48.982;8.406;2023-04-03T11:33:21;8.70;94.30
4390;DHT22;2209;48.982;8.406;2023-04-03T11:35:49;8.70;94.00
4390;DHT22;2209;48.982;8.406;2023-04-03T11:38:19;8.70;93.90
4390;DHT22;2209;48.982;8.406;2023-04-03T11:40:44;8.70;93.90
4390;DHT22;2209;48.982;8.406;2023-04-03T11:43:17;8.80;94.20
4390;DHT22;2209;48.982;8.406;2023-04-03T11:45:53;8.80;94.00
4390;DHT22;2209;48.982;8.406;2023-04-03T11:48:45;8.90;93.70
4390;DHT22;2209;48.982;8.406;2023-04-03T11:54:47;8.90;93.50
4390;DHT22;2209;48.982;8.406;2023-04-03T11:57:45;8.90;93.40
4390;DHT22;2209;48.982;8.406;2023-04-03T12:12:58;9.00;93.40
4390;DHT22;2209;48.982;8.406;2023-04-03T12:21:14;9.00;92.80
4390;DHT22;2209;48.982;8.406;2023-04-03T12:23:58;9.00;92.70
4390;DHT22;2209;48.982;8.406;2023-04-03T12:26:22;9.00;92.50
4390;DHT22;2209;48.982;8.406;2023-04-03T12:28:48;9.00;92.50
4390;DHT22;2209;48.982;8.406;2023-04-03T12:31:11;9.00;92.60
4390;DHT22;2209;48.982;8.406;2023-04-03T12:33:43;9.00;92.70
4390;DHT22;2209;48.982;8.406;2023-04-03T12:36:12;9.00;92.80
4390;DHT22;2209;48.982;8.406;2023-04-03T12:39:02;9.00;92.90
4390;DHT22;2209;48.982;8.406;2023-04-03T12:41:32;9.00;92.90
4390;DHT22;2209;48.982;8.406;2023-04-03T12:44:20;9.00;92.80
4390;DHT22;2209;48.982;8.406;2023-04-03T12:46:47;9.00;92.80
4390;DHT22;2209;48.982;8.406;2023-04-03T12:49:32;9.00;92.80
4390;DHT22;2209;48.982;8.406;2023-04-03T12:51:55;9.00;92.80
4390;DHT22;2209;48.982;8.406;2023-04-03T12:54:21;9.00;92.50
4390;DHT22;2209;48.982;8.406;2023-04-03T12:56:44;9.00;92.80
4390;DHT22;2209;48.982;8.406;2023-04-03T12:59:16;9.00;92.80
4390;DHT22;2209;48.982;8.406;2023-04-03T13:01:38;9.00;92.70
4390;DHT22;2209;48.982;8.406;2023-04-03T13:04:00;9.00;92.50
4390;DHT22;2209;48.982;8.406;2023-04-03T13:06:24;9.00;92.80
4390;DHT22;2209;48.982;8.406;2023-04-03T13:08:52;8.90;92.70
4390;DHT22;2209;48.982;8.406;2023-04-03T13:11:15;8.90;92.70
4390;DHT22;2209;48.982;8.406;2023-04-03T13:13:37;8.90;92.70
4390;DHT22;2209;48.982;8.406;2023-04-03T13:16:08;9.00;92.70
4390;DHT22;2209;48.982;8.406;2023-04-03T13:18:32;9.00;92.70
4390;DHT22;2209;48.982;8.406;2023-04-03T13:20:58;9.00;92.70
4390;DHT22;2209;48.982;8.406;2023-04-03T13:23:21;9.10;92.70
4390;DHT22;2209;48.982;8.406;2023-04-03T13:25:45;9.10;92.70
4390;DHT22;2209;48.982;8.406;2023-04-03T13:28:12;9.10;92.50
4390;DHT22;2209;48.982;8.406;2023-04-03T13:30:37;9.10;92.40
4390;DHT22;2209;48.982;8.406;2023-04-03T13:33:02;9.10;92.20
4390;DHT22;2209;48.982;8.406;2023-04-03T13:35:34;9.10;91.80
4390;DHT22;2209;48.982;8.406;2023-04-03T13:37:58;9.10;91.80
4390;DHT22;2209;48.982;8.406;2023-04-03T13:40:21;9.10;91.70
4390;DHT22;2209;48.982;8.406;2023-04-03T13:42:43;9.20;91.60
4390;DHT22;2209;48.982;8.406;2023-04-03T13:45:11;9.20;91.20
4390;DHT22;2209;48.982;8.406;2023-04-03T13:47:39;9.20;91.10
4390;DHT22;2209;48.982;8.406;2023-04-03T13:50:14;9.20;90.90
4390;DHT22;2209;48.982;8.406;2023-04-03T13:52:41;9.20;90.40
4390;DHT22;2209;48.982;8.406;2023-04-03T13:55:17;9.20;90.20
4390;DHT22;2209;48.982;8.406;2023-04-03T13:57:52;9.20;90.10
4390;DHT22;2209;48.982;8.406;2023-04-03T14:00:31;9.20;90.20
4390;DHT22;2209;48.982;8.406;2023-04-03T14:02:55;9.20;90.10
4390;DHT22;2209;48.982;8.406;2023-04-03T14:05:19;9.30;90.00
4390;DHT22;2209;48.982;8.406;2023-04-03T14:07:42;9.30;89.70
4390;DHT22;2209;48.982;8.406;2023-04-03T14:10:05;9.30;89.80
4390;DHT22;2209;48.982;8.406;2023-04-03T14:12:31;9.30;90.00
4390;DHT22;2209;48.982;8.406;2023-04-03T14:14:54;9.40;89.90
4390;DHT22;2209;48.982;8.406;2023-04-03T14:17:20;9.40;90.00
4390;DHT22;2209;48.982;8.406;2023-04-03T14:19:42;9.40;89.10
4390;DHT22;2209;48.982;8.406;2023-04-03T14:22:17;9.40;88.80
4390;DHT22;2209;48.982;8.406;2023-04-03T14:24:39;9.40;88.90
4390;DHT22;2209;48.982;8.406;2023-04-03T14:27:01;9.40;89.40
4390;DHT22;2209;48.982;8.406;2023-04-03T14:29:25;9.40;90.00
4390;DHT22;2209;48.982;8.406;2023-04-03T14:31:48;9.40;90.00
4390;DHT22;2209;48.982;8.406;2023-04-03T14:34:12;9.50;90.20
4390;DHT22;2209;48.982;8.406;2023-04-03T14:36:34;9.50;90.00
4390;DHT22;2209;48.982;8.406;2023-04-03T14:38:59;9.60;90.00
4390;DHT22;2209;48.982;8.406;2023-04-03T14:41:23;9.70;88.90
4390;DHT22;2209;48.982;8.406;2023-04-03T14:43:47;9.70;88.90
4390;DHT22;2209;48.982;8.406;2023-04-03T14:46:13;9.80;88.60
4390;DHT22;2209;48.982;8.406;2023-04-03T14:48:35;9.80;88.10
4390;DHT22;2209;48.982;8.406;2023-04-03T14:50:57;9.80;87.80
4390;DHT22;2209;48.982;8.406;2023-04-03T14:53:20;9.80;88.00
4390;DHT22;2209;48.982;8.406;2023-04-03T14:55:45;9.70;89.80
4390;DHT22;2209;48.982;8.406;2023-04-03T14:58:11;9.70;89.60
4390;DHT22;2209;48.982;8.406;2023-04-03T15:00:33;9.70;89.90
4390;DHT22;2209;48.982;8.406;2023-04-03T15:02:55;9.70;89.60
4390;DHT22;2209;48.982;8.406;2023-04-03T15:05:17;9.70;89.70
4390;DHT22;2209;48.982;8.406;2023-04-03T15:07:41;9.70;89.30
4390;DHT22;2209;48.982;8.406;2023-04-03T15:10:15;9.70;88.90
4390;DHT22;2209;48.982;8.406;2023-04-03T15:12:38;9.70;89.10
4390;DHT22;2209;48.982;8.406;2023-04-03T15:15:01;9.70;88.30
4390;DHT22;2209;48.982;8.406;2023-04-03T15:17:23;9.70;87.40
4390;DHT22;2209;48.982;8.406;2023-04-03T15:19:46;9.70;86.80
4390;DHT22;2209;48.982;8.406;2023-04-03T15:22:10;9.80;87.80
4390;DHT22;2209;48.982;8.406;2023-04-03T15:24:34;9.90;88.30
4390;DHT22;2209;48.982;8.406;2023-04-03T15:26:56;10.00;88.80
4390;DHT22;2209;48.982;8.406;2023-04-03T15:29:20;10.10;86.70
4390;DHT22;2209;48.982;8.406;2023-04-03T15:31:42;10.10;85.80
4390;DHT22;2209;48.982;8.406;2023-04-03T15:34:04;10.00;85.50
4390;DHT22;2209;48.982;8.406;2023-04-03T15:36:26;10.00;85.60
4390;DHT22;2209;48.982;8.406;2023-04-03T15:38:48;9.90;87.40
4390;DHT22;2209;48.982;8.406;2023-04-03T15:41:10;9.90;87.30
4390;DHT22;2209;48.982;8.406;2023-04-03T15:43:32;10.00;86.50
4390;DHT22;2209;48.982;8.406;2023-04-03T15:45:58;10.00;85.20
4390;DHT22;2209;48.982;8.406;2023-04-03T15:48:21;10.10;83.60
4390;DHT22;2209;48.982;8.406;2023-04-03T15:50:43;10.10;83.20
4390;DHT22;2209;48.982;8.406;2023-04-03T15:53:06;10.10;82.90
4390;DHT22;2209;48.982;8.406;2023-04-03T15:55:30;10.20;83.00
4390;DHT22;2209;48.982;8.406;2023-04-03T15:57:52;10.20;82.70
4390;DHT22;2209;48.982;8.406;2023-04-03T16:00:15;10.20;81.30
4390;DHT22;2209;48.982;8.406;2023-04-03T16:02:39;10.30;80.60
4390;DHT22;2209;48.982;8.406;2023-04-03T16:05:02;10.30;81.60
4390;DHT22;2209;48.982;8.406;2023-04-03T16:07:24;10.40;80.90
4390;DHT22;2209;48.982;8.406;2023-04-03T16:09:46;10.50;79.20
4390;DHT22;2209;48.982;8.406;2023-04-03T16:12:08;10.50;78.50
4390;DHT22;2209;48.982;8.406;2023-04-03T16:14:30;10.40;78.10
4390;DHT22;2209;48.982;8.406;2023-04-03T16:16:53;10.40;78.00
4390;DHT22;2209;48.982;8.406;2023-04-03T16:19:16;10.40;78.40
4390;DHT22;2209;48.982;8.406;2023-04-03T16:21:38;10.30;78.80